sensor_id;sensor_type;location;lat;lon;timestamp;temperature;humidity
67799;SHT30;54596;43.216;27.904;2023-01-16T00:01:12;7.59;90.68
67799;SHT30;54596;43.216;27.904;2023-01-16T00:03:37;7.61;90.71
67799;SHT30;54596;43.216;27.904;2023-01-16T00:06:03;7.59;90.87
67799;SHT30;54596;43.216;27.904;2023-01-16T00:08:28;7.62;90.87
67799;SHT30;54596;43.216;27.904;2023-01-16T00:10:54;7.65;91.17
67799;SHT30;54596;43.216;27.904;2023-01-16T00:13:19;7.61;91.39
67799;SHT30;54596;43.216;27.904;2023-01-16T00:15:47;7.57;91.56
67799;SHT30;54596;43.216;27.904;2023-01-16T00:18:13;7.57;91.68
67799;SHT30;54596;43.216;27.904;2023-01-16T00:20:38;7.52;91.80
67799;SHT30;54596;43.216;27.904;2023-01-16T00:23:04;7.54;91.89
67799;SHT30;54596;43.216;27.904;2023-01-16T00:25:29;7.57;91.86
67799;SHT30;54596;43.216;27.904;2023-01-16T00:27:55;7.59;91.88
67799;SHT30;54596;43.216;27.904;2023-01-16T00:30:20;7.61;91.89
67799;SHT30;54596;43.216;27.904;2023-01-16T00:32:46;7.58;91.99
67799;SHT30;54596;43.216;27.904;2023-01-16T00:35:12;7.62;91.97
67799;SHT30;54596;43.216;27.904;2023-01-16T00:37:37;7.59;92.06
67799;SHT30;54596;43.216;27.904;2023-01-16T00:40:04;7.59;92.15
67799;SHT30;54596;43.216;27.904;2023-01-16T00:42:29;7.58;92.23
67799;SHT30;54596;43.216;27.904;2023-01-16T00:44:55;7.62;92.15
67799;SHT30;54596;43.216;27.904;2023-01-16T00:47:20;7.61;92.13
67799;SHT30;54596;43.216;27.904;2023-01-16T00:49:46;7.61;92.28
67799;SHT30;54596;43.216;27.904;2023-01-16T00:52:11;7.62;92.34
67799;SHT30;54596;43.216;27.904;2023-01-16T00:54:37;7.62;92.41
67799;SHT30;54596;43.216;27.904;2023-01-16T00:57:02;7.66;92.41
67799;SHT30;54596;43.216;27.904;2023-01-16T00:59:28;7.65;92.37
67799;SHT30;54596;43.216;27.904;2023-01-16T01:01:53;7.64;92.44
67799;SHT30;54596;43.216;27.904;2023-01-16T01:04:19;7.68;92.52
67799;SHT30;54596;43.216;27.904;2023-01-16T01:06:44;7.66;92.63
67799;SHT30;54596;43.216;27.904;2023-01-16T01:09:10;7.71;92.72
67799;SHT30;54596;43.216;27.904;2023-01-16T01:11:35;7.69;92.75
67799;SHT30;54596;43.216;27.904;2023-01-16T01:14:01;7.71;92.89
67799;SHT30;54596;43.216;27.904;2023-01-16T01:16:26;7.68;93.01
67799;SHT30;54596;43.216;27.904;2023-01-16T01:18:52;7.68;93.02
67799;SHT30;54596;43.216;27.904;2023-01-16T01:21:17;7.71;93.01
67799;SHT30;54596;43.216;27.904;2023-01-16T01:23:43;7.74;92.99
67799;SHT30;54596;43.216;27.904;2023-01-16T01:26:10;7.75;92.98
67799;SHT30;54596;43.216;27.904;2023-01-16T01:28:37;7.74;93.11
67799;SHT30;54596;43.216;27.904;2023-01-16T01:31:07;7.72;93.17
67799;SHT30;54596;43.216;27.904;2023-01-16T01:33:33;7.78;93.04
67799;SHT30;54596;43.216;27.904;2023-01-16T01:35:59;7.76;93.11
67799;SHT30;54596;43.216;27.904;2023-01-16T01:38:24;7.78;93.10
67799;SHT30;54596;43.216;27.904;2023-01-16T01:40:50;7.75;93.23
67799;SHT30;54596;43.216;27.904;2023-01-16T01:43:15;7.74;93.32
67799;SHT30;54596;43.216;27.904;2023-01-16T01:45:44;7.76;93.31
67799;SHT30;54596;43.216;27.904;2023-01-16T01:50:45;7.75;93.38
67799;SHT30;54596;43.216;27.904;2023-01-16T01:53:27;7.76;93.34
67799;SHT30;54596;43.216;27.904;2023-01-16T01:55:56;7.76;93.32
67799;SHT30;54596;43.216;27.904;2023-01-16T01:58:23;7.78;93.36
67799;SHT30;54596;43.216;27.904;2023-01-16T02:00:53;7.78;93.32
67799;SHT30;54596;43.216;27.904;2023-01-16T02:03:32;7.79;93.28
67799;SHT30;54596;43.216;27.904;2023-01-16T02:06:03;7.81;93.29
67799;SHT30;54596;43.216;27.904;2023-01-16T02:08:32;7.82;93.26
67799;SHT30;54596;43.216;27.904;2023-01-16T02:11:11;7.83;93.23
67799;SHT30;54596;43.216;27.904;2023-01-16T02:13:53;7.87;93.15
67799;SHT30;54596;43.216;27.904;2023-01-16T02:16:20;7.90;93.02
67799;SHT30;54596;43.216;27.904;2023-01-16T02:19:04;7.87;93.05
67799;SHT30;54596;43.216;27.904;2023-01-16T02:36:19;7.90;92.88
67799;SHT30;54596;43.216;27.904;2023-01-16T02:39:10;7.94;92.71
67799;SHT30;54596;43.216;27.904;2023-01-16T02:41:50;7.93;92.85
67799;SHT30;54596;43.216;27.904;2023-01-16T02:46:56;7.94;92.64
67799;SHT30;54596;43.216;27.904;2023-01-16T02:52:46;7.93;92.49
67799;SHT30;54596;43.216;27.904;2023-01-16T02:55:25;7.96;92.43
67799;SHT30;54596;43.216;27.904;2023-01-16T02:57:57;7.92;92.51
67799;SHT30;54596;43.216;27.904;2023-01-16T03:00:24;7.92;92.53
67799;SHT30;54596;43.216;27.904;2023-01-16T03:02:50;7.92;92.55
67799;SHT30;54596;43.216;27.904;2023-01-16T03:05:15;7.87;92.60
67799;SHT30;54596;43.216;27.904;2023-01-16T03:13:35;7.93;92.21
67799;SHT30;54596;43.216;27.904;2023-01-16T03:16:37;7.90;92.24
67799;SHT30;54596;43.216;27.904;2023-01-16T03:19:22;7.86;92.28
67799;SHT30;54596;43.216;27.904;2023-01-16T03:22:12;7.85;92.27
67799;SHT30;54596;43.216;27.904;2023-01-16T03:25:02;7.90;92.06
67799;SHT30;54596;43.216;27.904;2023-01-16T03:33:41;7.89;92.01
67799;SHT30;54596;43.216;27.904;2023-01-16T03:36:10;7.99;91.93
67799;SHT30;54596;43.216;27.904;2023-01-16T03:38:37;8.02;91.31
67799;SHT30;54596;43.216;27.904;2023-01-16T03:41:05;8.04;91.73
67799;SHT30;54596;43.216;27.904;2023-01-16T03:43:37;8.04;91.50
67799;SHT30;54596;43.216;27.904;2023-01-16T03:46:10;8.11;92.60
67799;SHT30;54596;43.216;27.904;2023-01-16T03:48:44;8.13;91.48
67799;SHT30;54596;43.216;27.904;2023-01-16T03:51:23;8.10;91.08
67799;SHT30;54596;43.216;27.904;2023-01-16T03:59:06;8.17;90.86
67799;SHT30;54596;43.216;27.904;2023-01-16T04:01:38;8.20;91.10
67799;SHT30;54596;43.216;27.904;2023-01-16T04:04:09;8.16;91.11
67799;SHT30;54596;43.216;27.904;2023-01-16T04:06:44;8.19;90.75
67799;SHT30;54596;43.216;27.904;2023-01-16T04:09:41;8.13;90.71
67799;SHT30;54596;43.216;27.904;2023-01-16T04:12:06;8.19;90.47
67799;SHT30;54596;43.216;27.904;2023-01-16T04:14:34;8.14;90.56
67799;SHT30;54596;43.216;27.904;2023-01-16T04:17:01;8.10;90.47
67799;SHT30;54596;43.216;27.904;2023-01-16T04:19:28;8.17;90.46
67799;SHT30;54596;43.216;27.904;2023-01-16T04:21:54;8.07;90.22
67799;SHT30;54596;43.216;27.904;2023-01-16T04:24:20;8.03;90.34
67799;SHT30;54596;43.216;27.904;2023-01-16T04:26:45;8.06;90.27
67799;SHT30;54596;43.216;27.904;2023-01-16T04:29:11;8.06;90.33
67799;SHT30;54596;43.216;27.904;2023-01-16T04:31:38;8.03;90.32
67799;SHT30;54596;43.216;27.904;2023-01-16T04:34:03;7.99;90.31
67799;SHT30;54596;43.216;27.904;2023-01-16T04:36:29;8.03;89.83
67799;SHT30;54596;43.216;27.904;2023-01-16T04:38:56;7.97;89.61
67799;SHT30;54596;43.216;27.904;2023-01-16T04:41:21;8.00;89.65
67799;SHT30;54596;43.216;27.904;2023-01-16T04:44:04;8.06;89.30
67799;SHT30;54596;43.216;27.904;2023-01-16T04:46:29;8.07;89.25
67799;SHT30;54596;43.216;27.904;2023-01-16T04:48:55;8.10;88.93
67799;SHT30;54596;43.216;27.904;2023-01-16T04:51:21;8.06;88.85
67799;SHT30;54596;43.216;27.904;2023-01-16T04:53:46;7.97;88.87
67799;SHT30;54596;43.216;27.904;2023-01-16T04:56:12;7.99;88.86
67799;SHT30;54596;43.216;27.904;2023-01-16T04:58:37;7.97;89.01
67799;SHT30;54596;43.216;27.904;2023-01-16T05:01:03;7.93;88.94
67799;SHT30;54596;43.216;27.904;2023-01-16T05:03:28;7.97;88.75
67799;SHT30;54596;43.216;27.904;2023-01-16T05:05:54;7.96;89.04
67799;SHT30;54596;43.216;27.904;2023-01-16T05:08:19;7.93;88.79
67799;SHT30;54596;43.216;27.904;2023-01-16T05:10:45;7.97;88.81
67799;SHT30;54596;43.216;27.904;2023-01-16T05:13:11;7.94;88.81
67799;SHT30;54596;43.216;27.904;2023-01-16T05:15:37;7.93;88.81
67799;SHT30;54596;43.216;27.904;2023-01-16T05:18:02;7.87;89.18
67799;SHT30;54596;43.216;27.904;2023-01-16T05:20:28;7.89;89.25
67799;SHT30;54596;43.216;27.904;2023-01-16T05:22:54;7.87;89.20
67799;SHT30;54596;43.216;27.904;2023-01-16T05:25:19;7.89;89.24
67799;SHT30;54596;43.216;27.904;2023-01-16T05:27:50;7.86;89.34
67799;SHT30;54596;43.216;27.904;2023-01-16T05:30:17;7.89;89.19
67799;SHT30;54596;43.216;27.904;2023-01-16T05:32:43;7.93;89.05
67799;SHT30;54596;43.216;27.904;2023-01-16T05:35:09;7.92;88.79
67799;SHT30;54596;43.216;27.904;2023-01-16T05:37:35;8.00;88.58
67799;SHT30;54596;43.216;27.904;2023-01-16T05:40:01;7.99;88.51
67799;SHT30;54596;43.216;27.904;2023-01-16T05:42:27;8.02;88.68
67799;SHT30;54596;43.216;27.904;2023-01-16T05:44:52;8.03;88.31
67799;SHT30;54596;43.216;27.904;2023-01-16T05:47:19;8.02;87.94
67799;SHT30;54596;43.216;27.904;2023-01-16T05:49:44;8.04;88.09
67799;SHT30;54596;43.216;27.904;2023-01-16T05:52:10;8.03;87.81
67799;SHT30;54596;43.216;27.904;2023-01-16T05:54:35;8.02;87.92
67799;SHT30;54596;43.216;27.904;2023-01-16T05:57:01;8.04;87.80
67799;SHT30;54596;43.216;27.904;2023-01-16T05:59:26;8.04;87.83
67799;SHT30;54596;43.216;27.904;2023-01-16T06:01:52;8.04;87.82
67799;SHT30;54596;43.216;27.904;2023-01-16T06:04:17;8.09;87.91
67799;SHT30;54596;43.216;27.904;2023-01-16T06:06:45;8.07;87.69
67799;SHT30;54596;43.216;27.904;2023-01-16T06:09:10;8.11;87.66
67799;SHT30;54596;43.216;27.904;2023-01-16T06:11:36;8.09;87.48
67799;SHT30;54596;43.216;27.904;2023-01-16T06:14:01;8.07;87.44
67799;SHT30;54596;43.216;27.904;2023-01-16T06:16:33;8.09;87.31
67799;SHT30;54596;43.216;27.904;2023-01-16T06:18:59;8.10;87.28
67799;SHT30;54596;43.216;27.904;2023-01-16T06:21:24;8.14;86.85
67799;SHT30;54596;43.216;27.904;2023-01-16T06:23:50;8.16;87.37
67799;SHT30;54596;43.216;27.904;2023-01-16T06:26:15;8.17;86.98
67799;SHT30;54596;43.216;27.904;2023-01-16T06:28:41;8.09;86.76
67799;SHT30;54596;43.216;27.904;2023-01-16T06:31:07;8.16;87.43
67799;SHT30;54596;43.216;27.904;2023-01-16T06:33:33;8.20;86.61
67799;SHT30;54596;43.216;27.904;2023-01-16T06:35:59;8.14;86.75
67799;SHT30;54596;43.216;27.904;2023-01-16T06:38:24;8.13;86.49
67799;SHT30;54596;43.216;27.904;2023-01-16T06:40:50;8.17;86.26
67799;SHT30;54596;43.216;27.904;2023-01-16T06:43:25;8.10;86.34
67799;SHT30;54596;43.216;27.904;2023-01-16T06:45:50;8.10;86.60
67799;SHT30;54596;43.216;27.904;2023-01-16T06:48:16;8.11;86.56
67799;SHT30;54596;43.216;27.904;2023-01-16T06:50:41;8.09;86.65
67799;SHT30;54596;43.216;27.904;2023-01-16T06:53:07;8.09;86.68
67799;SHT30;54596;43.216;27.904;2023-01-16T06:55:32;8.10;86.73
67799;SHT30;54596;43.216;27.904;2023-01-16T06:57:58;8.10;86.92
67799;SHT30;54596;43.216;27.904;2023-01-16T07:00:23;8.06;86.48
67799;SHT30;54596;43.216;27.904;2023-01-16T07:02:52;8.06;86.64
67799;SHT30;54596;43.216;27.904;2023-01-16T07:05:21;8.02;86.82
67799;SHT30;54596;43.216;27.904;2023-01-16T07:07:47;8.04;86.78
67799;SHT30;54596;43.216;27.904;2023-01-16T07:10:13;8.14;86.69
67799;SHT30;54596;43.216;27.904;2023-01-16T07:12:39;8.20;86.56
67799;SHT30;54596;43.216;27.904;2023-01-16T07:15:05;8.17;86.17
67799;SHT30;54596;43.216;27.904;2023-01-16T07:17:49;8.23;86.18
67799;SHT30;54596;43.216;27.904;2023-01-16T07:20:33;8.26;86.33
67799;SHT30;54596;43.216;27.904;2023-01-16T07:23:31;8.24;86.02
67799;SHT30;54596;43.216;27.904;2023-01-16T07:26:01;8.24;85.79
67799;SHT30;54596;43.216;27.904;2023-01-16T07:28:27;8.27;86.05
67799;SHT30;54596;43.216;27.904;2023-01-16T07:30:54;8.30;85.81
67799;SHT30;54596;43.216;27.904;2023-01-16T07:33:20;8.31;85.99
67799;SHT30;54596;43.216;27.904;2023-01-16T07:35:46;8.21;85.74
67799;SHT30;54596;43.216;27.904;2023-01-16T07:38:11;8.28;85.65
67799;SHT30;54596;43.216;27.904;2023-01-16T07:40:37;8.31;85.76
67799;SHT30;54596;43.216;27.904;2023-01-16T07:43:02;8.37;85.43
67799;SHT30;54596;43.216;27.904;2023-01-16T07:45:28;8.40;85.42
67799;SHT30;54596;43.216;27.904;2023-01-16T07:47:53;8.38;85.17
67799;SHT30;54596;43.216;27.904;2023-01-16T07:50:19;8.42;85.26
67799;SHT30;54596;43.216;27.904;2023-01-16T07:52:44;8.40;85.31
67799;SHT30;54596;43.216;27.904;2023-01-16T07:55:11;8.45;84.91
67799;SHT30;54596;43.216;27.904;2023-01-16T07:57:38;8.49;84.68
67799;SHT30;54596;43.216;27.904;2023-01-16T08:00:08;8.56;84.32
67799;SHT30;54596;43.216;27.904;2023-01-16T08:02:35;8.56;84.02
67799;SHT30;54596;43.216;27.904;2023-01-16T08:05:00;8.61;84.00
67799;SHT30;54596;43.216;27.904;2023-01-16T08:07:26;8.68;84.01
67799;SHT30;54596;43.216;27.904;2023-01-16T08:09:51;8.69;83.72
67799;SHT30;54596;43.216;27.904;2023-01-16T08:12:17;8.73;83.61
67799;SHT30;54596;43.216;27.904;2023-01-16T08:14:42;8.84;83.26
67799;SHT30;54596;43.216;27.904;2023-01-16T08:17:07;8.94;82.75
67799;SHT30;54596;43.216;27.904;2023-01-16T08:19:33;9.03;82.37
67799;SHT30;54596;43.216;27.904;2023-01-16T08:21:58;9.10;82.24
67799;SHT30;54596;43.216;27.904;2023-01-16T08:24:24;9.23;82.32
67799;SHT30;54596;43.216;27.904;2023-01-16T08:26:54;9.38;81.46
67799;SHT30;54596;43.216;27.904;2023-01-16T08:29:20;9.39;81.38
67799;SHT30;54596;43.216;27.904;2023-01-16T08:31:46;9.41;81.22
67799;SHT30;54596;43.216;27.904;2023-01-16T08:34:11;9.45;81.15
67799;SHT30;54596;43.216;27.904;2023-01-16T08:36:37;9.38;81.53
67799;SHT30;54596;43.216;27.904;2023-01-16T08:39:02;9.35;81.49
67799;SHT30;54596;43.216;27.904;2023-01-16T08:41:28;9.38;81.39
67799;SHT30;54596;43.216;27.904;2023-01-16T08:44:12;9.45;81.50
67799;SHT30;54596;43.216;27.904;2023-01-16T08:47:01;9.51;81.26
67799;SHT30;54596;43.216;27.904;2023-01-16T08:49:46;9.62;80.60
67799;SHT30;54596;43.216;27.904;2023-01-16T08:52:32;10.25;78.94
67799;SHT30;54596;43.216;27.904;2023-01-16T08:54:59;10.63;77.29
67799;SHT30;54596;43.216;27.904;2023-01-16T08:57:26;10.66;77.52
67799;SHT30;54596;43.216;27.904;2023-01-16T08:59:53;10.75;77.03
67799;SHT30;54596;43.216;27.904;2023-01-16T09:02:19;10.87;76.89
67799;SHT30;54596;43.216;27.904;2023-01-16T09:04:45;11.11;76.16
67799;SHT30;54596;43.216;27.904;2023-01-16T09:07:11;11.34;76.00
67799;SHT30;54596;43.216;27.904;2023-01-16T09:09:37;11.55;75.01
67799;SHT30;54596;43.216;27.904;2023-01-16T09:12:02;11.86;74.16
67799;SHT30;54596;43.216;27.904;2023-01-16T09:14:46;12.00;72.85
67799;SHT30;54596;43.216;27.904;2023-01-16T09:17:12;11.97;72.51
67799;SHT30;54596;43.216;27.904;2023-01-16T09:19:37;12.01;72.74
67799;SHT30;54596;43.216;27.904;2023-01-16T09:22:04;12.24;71.69
67799;SHT30;54596;43.216;27.904;2023-01-16T09:24:33;12.35;72.00
67799;SHT30;54596;43.216;27.904;2023-01-16T09:26:58;12.59;70.38
67799;SHT30;54596;43.216;27.904;2023-01-16T09:29:24;12.53;70.08
67799;SHT30;54596;43.216;27.904;2023-01-16T09:31:52;12.42;69.85
67799;SHT30;54596;43.216;27.904;2023-01-16T09:34:17;12.43;69.75
67799;SHT30;54596;43.216;27.904;2023-01-16T09:36:43;12.38;69.77
67799;SHT30;54596;43.216;27.904;2023-01-16T09:39:08;12.22;69.49
67799;SHT30;54596;43.216;27.904;2023-01-16T09:41:42;12.14;70.38
67799;SHT30;54596;43.216;27.904;2023-01-16T09:44:28;12.24;70.53
67799;SHT30;54596;43.216;27.904;2023-01-16T09:46:54;12.11;71.00
67799;SHT30;54596;43.216;27.904;2023-01-16T09:49:28;11.97;71.40
67799;SHT30;54596;43.216;27.904;2023-01-16T09:52:06;11.94;71.44
67799;SHT30;54596;43.216;27.904;2023-01-16T09:54:59;11.77;72.11
67799;SHT30;54596;43.216;27.904;2023-01-16T09:57:45;11.61;71.41
67799;SHT30;54596;43.216;27.904;2023-01-16T10:00:32;11.58;71.60
67799;SHT30;54596;43.216;27.904;2023-01-16T10:02:59;11.54;72.42
67799;SHT30;54596;43.216;27.904;2023-01-16T10:05:30;11.42;72.30
67799;SHT30;54596;43.216;27.904;2023-01-16T10:08:21;11.40;71.63
67799;SHT30;54596;43.216;27.904;2023-01-16T10:13:47;11.24;70.83
67799;SHT30;54596;43.216;27.904;2023-01-16T10:16:48;11.06;71.11
67799;SHT30;54596;43.216;27.904;2023-01-16T10:31:05;10.76;73.91
67799;SHT30;54596;43.216;27.904;2023-01-16T10:34:05;10.83;73.66
67799;SHT30;54596;43.216;27.904;2023-01-16T10:36:39;10.87;71.73
67799;SHT30;54596;43.216;27.904;2023-01-16T10:39:05;10.89;71.87
67799;SHT30;54596;43.216;27.904;2023-01-16T10:41:36;10.92;71.43
67799;SHT30;54596;43.216;27.904;2023-01-16T10:44:39;10.94;70.86
67799;SHT30;54596;43.216;27.904;2023-01-16T10:47:34;11.00;70.58
67799;SHT30;54596;43.216;27.904;2023-01-16T10:50:20;10.96;72.10
67799;SHT30;54596;43.216;27.904;2023-01-16T10:52:46;10.94;72.82
67799;SHT30;54596;43.216;27.904;2023-01-16T10:55:13;10.87;73.96
67799;SHT30;54596;43.216;27.904;2023-01-16T10:57:45;10.79;74.68
67799;SHT30;54596;43.216;27.904;2023-01-16T11:00:27;10.79;75.09
67799;SHT30;54596;43.216;27.904;2023-01-16T11:06:13;10.83;75.93
67799;SHT30;54596;43.216;27.904;2023-01-16T11:08:41;10.75;76.71
67799;SHT30;54596;43.216;27.904;2023-01-16T11:11:09;10.67;77.10
67799;SHT30;54596;43.216;27.904;2023-01-16T11:13:55;10.58;77.66
67799;SHT30;54596;43.216;27.904;2023-01-16T11:16:40;10.58;78.14
67799;SHT30;54596;43.216;27.904;2023-01-16T11:19:26;10.62;78.07
67799;SHT30;54596;43.216;27.904;2023-01-16T11:21:57;10.65;78.10
67799;SHT30;54596;43.216;27.904;2023-01-16T11:24:34;10.70;78.40
67799;SHT30;54596;43.216;27.904;2023-01-16T11:27:03;10.67;78.89
67799;SHT30;54596;43.216;27.904;2023-01-16T11:29:36;10.72;78.29
67799;SHT30;54596;43.216;27.904;2023-01-16T11:32:06;10.72;77.87
67799;SHT30;54596;43.216;27.904;2023-01-16T11:34:36;10.79;78.03
67799;SHT30;54596;43.216;27.904;2023-01-16T11:37:04;10.72;77.95
67799;SHT30;54596;43.216;27.904;2023-01-16T11:39:33;10.67;78.37
67799;SHT30;54596;43.216;27.904;2023-01-16T11:42:04;10.62;78.91
67799;SHT30;54596;43.216;27.904;2023-01-16T11:44:59;10.56;79.34
67799;SHT30;54596;43.216;27.904;2023-01-16T11:47:51;10.58;79.21
67799;SHT30;54596;43.216;27.904;2023-01-16T11:50:35;10.55;79.47
67799;SHT30;54596;43.216;27.904;2023-01-16T11:53:05;10.58;79.44
67799;SHT30;54596;43.216;27.904;2023-01-16T12:01:08;10.56;80.61
67799;SHT30;54596;43.216;27.904;2023-01-16T12:03:50;10.50;81.23
67799;SHT30;54596;43.216;27.904;2023-01-16T12:12:22;10.45;82.36
67799;SHT30;54596;43.216;27.904;2023-01-16T12:15:30;10.39;82.23
67799;SHT30;54596;43.216;27.904;2023-01-16T12:18:13;10.37;82.60
67799;SHT30;54596;43.216;27.904;2023-01-16T12:21:01;10.35;82.59
67799;SHT30;54596;43.216;27.904;2023-01-16T12:23:40;10.42;82.44
67799;SHT30;54596;43.216;27.904;2023-01-16T12:26:29;10.38;82.68
67799;SHT30;54596;43.216;27.904;2023-01-16T12:29:21;10.32;83.19
67799;SHT30;54596;43.216;27.904;2023-01-16T12:40:38;10.22;84.75
67799;SHT30;54596;43.216;27.904;2023-01-16T12:46:02;10.14;86.24
67799;SHT30;54596;43.216;27.904;2023-01-16T12:51:24;10.11;86.83
67799;SHT30;54596;43.216;27.904;2023-01-16T12:54:22;10.13;86.68
67799;SHT30;54596;43.216;27.904;2023-01-16T12:59:53;10.08;87.10
67799;SHT30;54596;43.216;27.904;2023-01-16T13:02:34;10.08;87.06
67799;SHT30;54596;43.216;27.904;2023-01-16T13:05:05;10.10;87.20
67799;SHT30;54596;43.216;27.904;2023-01-16T13:07:35;10.03;87.76
67799;SHT30;54596;43.216;27.904;2023-01-16T13:12:53;9.98;87.75
67799;SHT30;54596;43.216;27.904;2023-01-16T13:15:40;9.96;88.22
67799;SHT30;54596;43.216;27.904;2023-01-16T13:18:47;9.98;88.20
67799;SHT30;54596;43.216;27.904;2023-01-16T13:21:08;10.00;88.25
67799;SHT30;54596;43.216;27.904;2023-01-16T13:23:39;10.00;88.10
67799;SHT30;54596;43.216;27.904;2023-01-16T13:26:08;10.01;88.28
67799;SHT30;54596;43.216;27.904;2023-01-16T13:31:48;10.00;88.22
67799;SHT30;54596;43.216;27.904;2023-01-16T13:34:26;9.96;88.20
67799;SHT30;54596;43.216;27.904;2023-01-16T13:42:51;9.91;87.97
67799;SHT30;54596;43.216;27.904;2023-01-16T13:45:35;9.83;88.14
67799;SHT30;54596;43.216;27.904;2023-01-16T13:48:13;9.85;88.11
67799;SHT30;54596;43.216;27.904;2023-01-16T13:50:46;9.78;88.50
67799;SHT30;54596;43.216;27.904;2023-01-16T13:53:14;9.78;88.62
67799;SHT30;54596;43.216;27.904;2023-01-16T13:55:40;9.76;88.59
67799;SHT30;54596;43.216;27.904;2023-01-16T14:00:37;9.75;88.54
67799;SHT30;54596;43.216;27.904;2023-01-16T14:05:51;9.76;88.23
67799;SHT30;54596;43.216;27.904;2023-01-16T14:11:15;9.80;88.14
67799;SHT30;54596;43.216;27.904;2023-01-16T14:13:41;9.82;87.95
67799;SHT30;54596;43.216;27.904;2023-01-16T14:18:59;9.82;87.61
67799;SHT30;54596;43.216;27.904;2023-01-16T14:21:28;9.78;87.69
67799;SHT30;54596;43.216;27.904;2023-01-16T14:24:04;9.78;87.40
67799;SHT30;54596;43.216;27.904;2023-01-16T14:34:26;9.68;87.89
67799;SHT30;54596;43.216;27.904;2023-01-16T14:36:54;9.68;88.04
67799;SHT30;54596;43.216;27.904;2023-01-16T14:39:35;9.70;88.14
67799;SHT30;54596;43.216;27.904;2023-01-16T14:45:32;9.62;88.65
67799;SHT30;54596;43.216;27.904;2023-01-16T14:57:22;9.58;89.22
67799;SHT30;54596;43.216;27.904;2023-01-16T15:02:22;9.59;89.38
67799;SHT30;54596;43.216;27.904;2023-01-16T15:05:08;9.69;89.65
67799;SHT30;54596;43.216;27.904;2023-01-16T15:07:58;9.68;89.31
67799;SHT30;54596;43.216;27.904;2023-01-16T15:10:38;9.63;89.48
67799;SHT30;54596;43.216;27.904;2023-01-16T15:13:23;9.63;89.43
67799;SHT30;54596;43.216;27.904;2023-01-16T15:18:18;9.55;89.99
67799;SHT30;54596;43.216;27.904;2023-01-16T15:21:11;9.53;90.21
67799;SHT30;54596;43.216;27.904;2023-01-16T15:23:56;9.51;90.45
67799;SHT30;54596;43.216;27.904;2023-01-16T15:31:46;9.49;90.91
67799;SHT30;54596;43.216;27.904;2023-01-16T15:34:21;9.48;90.94
67799;SHT30;54596;43.216;27.904;2023-01-16T15:36:52;9.48;90.97
67799;SHT30;54596;43.216;27.904;2023-01-16T15:44:42;9.52;90.65
67799;SHT30;54596;43.216;27.904;2023-01-16T15:53:10;9.53;90.85
67799;SHT30;54596;43.216;27.904;2023-01-16T15:55:39;9.52;90.95
67799;SHT30;54596;43.216;27.904;2023-01-16T15:58:13;9.53;91.07
67799;SHT30;54596;43.216;27.904;2023-01-16T16:00:40;9.55;90.98
67799;SHT30;54596;43.216;27.904;2023-01-16T16:03:18;9.59;90.84
67799;SHT30;54596;43.216;27.904;2023-01-16T16:05:48;9.58;90.66
67799;SHT30;54596;43.216;27.904;2023-01-16T16:08:18;9.58;90.69
67799;SHT30;54596;43.216;27.904;2023-01-16T16:10:44;9.58;90.55
67799;SHT30;54596;43.216;27.904;2023-01-16T16:13:29;9.59;90.66
67799;SHT30;54596;43.216;27.904;2023-01-16T16:16:03;9.62;90.20
67799;SHT30;54596;43.216;27.904;2023-01-16T16:18:54;9.66;90.10
67799;SHT30;54596;43.216;27.904;2023-01-16T16:21:21;9.69;89.78
67799;SHT30;54596;43.216;27.904;2023-01-16T16:23:58;9.72;89.62
67799;SHT30;54596;43.216;27.904;2023-01-16T16:26:24;9.68;89.57
67799;SHT30;54596;43.216;27.904;2023-01-16T16:28:49;9.68;89.47
67799;SHT30;54596;43.216;27.904;2023-01-16T16:31:30;9.68;89.38
67799;SHT30;54596;43.216;27.904;2023-01-16T16:34:17;9.68;89.45
67799;SHT30;54596;43.216;27.904;2023-01-16T16:36:46;9.66;89.25
67799;SHT30;54596;43.216;27.904;2023-01-16T16:41:59;9.62;89.39
67799;SHT30;54596;43.216;27.904;2023-01-16T16:47:36;9.59;89.49
67799;SHT30;54596;43.216;27.904;2023-01-16T16:50:31;9.56;89.65
67799;SHT30;54596;43.216;27.904;2023-01-16T16:55:40;9.56;89.57
67799;SHT30;54596;43.216;27.904;2023-01-16T16:58:17;9.61;89.73
67799;SHT30;54596;43.216;27.904;2023-01-16T17:00:44;9.59;89.90
67799;SHT30;54596;43.216;27.904;2023-01-16T17:03:17;9.59;90.14
67799;SHT30;54596;43.216;27.904;2023-01-16T17:05:44;9.61;90.36
67799;SHT30;54596;43.216;27.904;2023-01-16T17:08:16;9.56;90.53
67799;SHT30;54596;43.216;27.904;2023-01-16T17:10:42;9.52;90.66
67799;SHT30;54596;43.216;27.904;2023-01-16T17:13:10;9.51;90.75
67799;SHT30;54596;43.216;27.904;2023-01-16T17:15:36;9.55;90.79
67799;SHT30;54596;43.216;27.904;2023-01-16T17:18:01;9.49;90.89
67799;SHT30;54596;43.216;27.904;2023-01-16T17:20:27;9.46;90.82
67799;SHT30;54596;43.216;27.904;2023-01-16T17:22:54;9.55;90.57
67799;SHT30;54596;43.216;27.904;2023-01-16T17:25:20;9.58;90.39
67799;SHT30;54596;43.216;27.904;2023-01-16T17:27:50;9.56;90.42
67799;SHT30;54596;43.216;27.904;2023-01-16T17:30:17;9.59;90.79
67799;SHT30;54596;43.216;27.904;2023-01-16T17:32:43;9.61;90.72
67799;SHT30;54596;43.216;27.904;2023-01-16T17:35:14;9.65;91.07
67799;SHT30;54596;43.216;27.904;2023-01-16T17:37:40;9.70;91.12
67799;SHT30;54596;43.216;27.904;2023-01-16T17:40:06;9.72;91.17
67799;SHT30;54596;43.216;27.904;2023-01-16T17:42:32;9.66;91.55
67799;SHT30;54596;43.216;27.904;2023-01-16T17:45:41;9.65;91.64
67799;SHT30;54596;43.216;27.904;2023-01-16T17:48:29;9.66;91.84
67799;SHT30;54596;43.216;27.904;2023-01-16T17:50:56;9.59;91.93
67799;SHT30;54596;43.216;27.904;2023-01-16T17:53:26;9.63;91.87
67799;SHT30;54596;43.216;27.904;2023-01-16T17:55:53;9.61;91.81
67799;SHT30;54596;43.216;27.904;2023-01-16T17:58:31;9.62;91.59
67799;SHT30;54596;43.216;27.904;2023-01-16T18:01:16;9.62;91.51
67799;SHT30;54596;43.216;27.904;2023-01-16T18:03:50;9.61;90.90
67799;SHT30;54596;43.216;27.904;2023-01-16T18:06:19;9.63;91.23
67799;SHT30;54596;43.216;27.904;2023-01-16T18:08:49;9.66;90.44
67799;SHT30;54596;43.216;27.904;2023-01-16T18:11:14;9.66;90.19
67799;SHT30;54596;43.216;27.904;2023-01-16T18:13:58;9.70;89.95
67799;SHT30;54596;43.216;27.904;2023-01-16T18:16:42;9.70;90.14
67799;SHT30;54596;43.216;27.904;2023-01-16T18:19:26;9.68;90.35
67799;SHT30;54596;43.216;27.904;2023-01-16T18:21:52;9.69;89.73
67799;SHT30;54596;43.216;27.904;2023-01-16T18:24:31;9.70;90.51
67799;SHT30;54596;43.216;27.904;2023-01-16T18:26:58;9.72;90.85
67799;SHT30;54596;43.216;27.904;2023-01-16T18:29:24;9.70;91.37
67799;SHT30;54596;43.216;27.904;2023-01-16T18:31:50;9.68;91.45
67799;SHT30;54596;43.216;27.904;2023-01-16T18:34:33;9.69;91.18